createdAt,value
2022-12-31T08:08:33.675Z,100905.03
2022-12-31T08:09:40.691Z,100908.42
2022-12-31T08:11:07.070Z,100914.34
2022-12-31T08:12:11.272Z,100912.54
2022-12-31T08:13:17.428Z,100909.81
2022-12-31T08:14:21.798Z,100912.40
2022-12-31T08:15:30.290Z,100911.34
2022-12-31T08:16:32.103Z,100906.92
2022-12-31T08:17:36.225Z,100914.70
2022-12-31T08:18:40.765Z,100907.59
2022-12-31T08:19:45.263Z,100912.73
2022-12-31T08:21:22.298Z,100917.19
2022-12-31T08:22:47.479Z,100915.37
2022-12-31T08:24:03.162Z,100912.55
2022-12-31T08:25:28.325Z,100911.70
2022-12-31T08:26:38.413Z,100911.70
2022-12-31T08:27:54.659Z,100904.41
2022-12-31T08:29:10.541Z,100903.39
2022-12-31T08:30:23.710Z,100905.02
2022-12-31T08:31:33.467Z,100897.06
2022-12-31T08:32:52.275Z,100898.61
2022-12-31T08:34:30.996Z,100902.97
2022-12-31T08:36:03.511Z,100906.33
2022-12-31T08:37:13.264Z,100905.27
2022-12-31T08:38:39.668Z,100912.20
2022-12-31T08:39:52.175Z,100905.87
2022-12-31T08:41:08.055Z,100907.59
2022-12-31T08:42:26.792Z,100897.76
2022-12-31T08:43:49.954Z,100895.77
2022-12-31T08:44:56.991Z,100894.74
2022-12-31T08:46:01.793Z,100899.88
2022-12-31T08:47:21.071Z,100899.70
2022-12-31T08:48:42.867Z,100898.59
2022-12-31T08:49:47.057Z,100894.72
2022-12-31T08:50:51.270Z,100892.66
2022-12-31T08:51:55.601Z,100895.98
2022-12-31T08:53:00.170Z,100888.79
2022-12-31T08:54:04.438Z,100888.79
2022-12-31T08:55:10.285Z,100892.95
2022-12-31T08:56:17.353Z,100887.46
2022-12-31T08:57:33.479Z,100885.58
2022-12-31T08:58:43.242Z,100885.58
2022-12-31T08:59:50.391Z,100885.58
2022-12-31T09:00:57.898Z,100880.08
2022-12-31T09:02:30.441Z,100880.00
2022-12-31T09:03:46.409Z,100882.37
2022-12-31T09:05:28.208Z,100876.12
2022-12-31T09:06:46.278Z,100874.24
2022-12-31T09:08:09.670Z,100878.59
2022-12-31T09:09:16.866Z,100870.44
2022-12-31T09:10:40.137Z,100866.16
2022-12-31T09:11:47.025Z,100868.74
2022-12-31T09:13:14.963Z,100868.74
2022-12-31T09:14:27.703Z,100864.47
2022-12-31T09:15:50.083Z,100850.73
2022-12-31T09:17:25.492Z,100856.52
2022-12-31T09:18:33.290Z,100857.17
2022-12-31T09:19:36.845Z,100846.46
2022-12-31T09:20:43.359Z,100849.97
2022-12-31T09:21:47.405Z,100849.97
2022-12-31T09:22:52.787Z,100852.09
2022-12-31T09:23:56.996Z,100856.17
2022-12-31T09:25:01.114Z,100846.95
2022-12-31T09:26:08.159Z,100847.61
2022-12-31T09:27:15.242Z,100848.11
2022-12-31T09:28:22.167Z,100849.61
2022-12-31T09:29:41.257Z,100844.29
2022-12-31T09:31:00.081Z,100846.95
2022-12-31T09:32:26.164Z,100842.40
2022-12-31T09:33:38.907Z,100835.55
2022-12-31T09:34:48.473Z,100841.63
2022-12-31T09:36:01.180Z,100844.29
2022-12-31T09:37:08.214Z,100844.09
2022-12-31T09:38:20.802Z,100837.73
2022-12-31T09:39:41.539Z,100836.69
2022-12-31T09:41:04.953Z,100836.48
2022-12-31T09:42:44.944Z,100837.17
2022-12-31T09:43:58.985Z,100841.41
2022-12-31T09:45:24.282Z,100834.20
2022-12-31T09:46:46.435Z,100836.78
2022-12-31T09:48:11.318Z,100835.73
2022-12-31T09:49:45.094Z,100836.66
2022-12-31T09:51:09.957Z,100830.41
2022-12-31T09:52:17.167Z,100833.84
2022-12-31T09:53:27.086Z,100833.84
2022-12-31T09:54:48.918Z,100831.70
2022-12-31T09:56:07.831Z,100828.96
2022-12-31T09:57:20.667Z,100825.17
2022-12-31T09:58:45.892Z,100829.41
2022-12-31T10:00:11.075Z,100831.02
2022-12-31T10:01:27.286Z,100830.85
2022-12-31T10:02:58.906Z,100834.24
2022-12-31T10:04:23.395Z,100841.17
2022-12-31T10:05:30.624Z,100834.04
2022-12-31T10:06:43.525Z,100842.70
2022-12-31T10:09:41.391Z,100834.04
2022-12-31T10:10:48.431Z,100832.05
2022-12-31T10:12:05.282Z,100836.53
2022-12-31T10:13:18.288Z,100822.27
2022-12-31T10:14:56.777Z,100817.78
2022-12-31T10:16:21.858Z,100813.42
2022-12-31T10:17:28.971Z,100813.42
2022-12-31T10:19:09.073Z,100812.26
2022-12-31T10:20:49.583Z,100809.52
2022-12-31T10:22:11.389Z,100804.19
2022-12-31T10:23:34.910Z,100803.22
2022-12-31T10:24:47.838Z,100796.08
2022-12-31T10:26:03.487Z,100799.71
2022-12-31T10:27:43.469Z,100799.71
2022-12-31T10:28:50.457Z,100789.48
2022-12-31T10:30:18.738Z,100795.36
2022-12-31T10:31:37.660Z,100790.03
2022-12-31T10:33:04.168Z,100788.42
2022-12-31T10:34:29.369Z,100790.03
2022-12-31T10:35:42.355Z,100784.59
2022-12-31T10:37:10.449Z,100781.84
2022-12-31T10:38:29.511Z,100780.79
2022-12-31T10:39:48.370Z,100780.79
2022-12-31T10:40:59.410Z,100784.18
2022-12-31T10:42:34.586Z,100781.63
2022-12-31T10:44:16.419Z,100782.27
2022-12-31T10:45:55.350Z,100776.86
2022-12-31T10:47:29.640Z,100776.74
2022-12-31T10:48:39.708Z,100781.02
2022-12-31T10:50:09.137Z,100775.69
2022-12-31T10:51:31.279Z,100777.42
2022-12-31T10:52:44.374Z,100774.00
2022-12-31T10:54:15.505Z,100774.41
2022-12-31T10:55:39.046Z,100766.22
2022-12-31T10:57:01.224Z,100770.78
2022-12-31T10:58:41.339Z,100771.95
2022-12-31T10:59:51.203Z,100771.95
2022-12-31T11:01:10.162Z,100763.77
2022-12-31T11:02:32.407Z,100765.25
2022-12-31T11:04:01.274Z,100761.66
2022-12-31T11:05:27.716Z,100770.37
2022-12-31T11:06:37.572Z,100761.45
2022-12-31T11:08:12.973Z,100764.95
2022-12-31T11:09:52.564Z,100759.33
2022-12-31T11:11:21.562Z,100764.45
2022-12-31T11:12:56.889Z,100759.97
2022-12-31T11:14:31.516Z,100757.22
2022-12-31T11:15:50.429Z,100762.33
2022-12-31T11:17:12.255Z,100756.88
2022-12-31T11:18:22.025Z,100742.52
2022-12-31T11:19:54.428Z,100747.62
2022-12-31T11:21:10.168Z,100747.62
2022-12-31T11:22:39.665Z,100745.72
2022-12-31T11:23:49.394Z,100752.73
2022-12-31T11:25:15.439Z,100751.05
2022-12-31T11:26:47.670Z,100742.09
2022-12-31T11:28:14.539Z,100735.06
2022-12-31T11:30:06.552Z,100739.55
2022-12-31T11:31:18.905Z,100739.55
2022-12-31T11:32:40.804Z,100735.28
2022-12-31T11:33:55.412Z,100731.65
2022-12-31T11:35:02.377Z,100731.65
2022-12-31T11:36:12.086Z,100736.97
2022-12-31T11:37:37.050Z,100729.74
2022-12-31T11:38:51.845Z,100726.11
2022-12-31T11:40:16.881Z,100737.64
2022-12-31T11:41:41.874Z,100728.59
2022-12-31T11:43:00.621Z,100733.91
2022-12-31T11:44:32.994Z,100721.66
2022-12-31T11:46:12.032Z,100719.72
2022-12-31T11:50:23.996Z,100727.29
2022-12-31T11:51:34.020Z,100728.34
2022-12-31T11:52:46.954Z,100728.44
2022-12-31T11:54:16.475Z,100726.75
2022-12-31T11:55:32.534Z,100718.76
2022-12-31T11:58:50.610Z,100710.77
2022-12-31T11:59:59.128Z,100708.11
2022-12-31T12:01:14.834Z,100712.67
2022-12-31T12:02:35.659Z,100706.29
2022-12-31T12:03:42.759Z,100702.69
2022-12-31T12:04:51.571Z,100702.69
2022-12-31T12:05:58.092Z,100701.72
2022-12-31T12:07:14.821Z,100709.62
2022-12-31T12:08:40.608Z,100709.62
2022-12-31T12:09:47.841Z,100711.95
2022-12-31T12:10:57.325Z,100708.44
2022-12-31T12:12:04.692Z,100708.44
2022-12-31T12:13:11.869Z,100708.22
2022-12-31T12:14:43.117Z,100708.22
2022-12-31T12:15:57.981Z,100705.47
2022-12-31T12:17:05.971Z,100703.65
2022-12-31T12:18:13.350Z,100693.97
2022-12-31T12:19:21.237Z,100685.97
2022-12-31T12:20:43.212Z,100688.82
2022-12-31T12:21:52.214Z,100690.33
2022-12-31T12:22:58.533Z,100690.33
2022-12-31T12:24:08.254Z,100692.15
2022-12-31T12:25:18.207Z,100620.64
2022-12-31T12:26:38.691Z,100690.33
2022-12-31T12:27:46.554Z,100682.44
2022-12-31T12:28:50.620Z,100682.44
2022-12-31T12:29:54.745Z,100686.91
2022-12-31T12:31:04.605Z,100682.65
2022-12-31T12:32:20.489Z,100685.22
2022-12-31T12:33:24.975Z,100691.48
2022-12-31T12:34:38.064Z,100685.44
2022-12-31T12:35:45.113Z,100690.77
2022-12-31T12:36:49.293Z,100682.02
2022-12-31T12:38:05.445Z,100683.71
2022-12-31T12:39:12.979Z,100676.70
2022-12-31T12:40:24.067Z,100676.70
2022-12-31T12:41:31.941Z,100681.48
2022-12-31T12:42:48.973Z,100681.48
2022-12-31T12:43:45.333Z,100678.81
2022-12-31T12:44:49.462Z,100678.81
2022-12-31T12:45:55.749Z,100671.80
2022-12-31T12:47:06.436Z,100676.25
2022-12-31T12:48:16.323Z,100672.86
2022-12-31T12:49:39.069Z,100674.55
2022-12-31T12:50:46.552Z,100670.08
2022-12-31T12:52:04.414Z,100674.46
2022-12-31T12:53:11.617Z,100683.39
2022-12-31T12:54:30.574Z,100677.34
2022-12-31T12:55:48.871Z,100673.70
2022-12-31T12:57:06.915Z,100678.19
2022-12-31T12:58:29.288Z,100681.78
2022-12-31T13:00:08.058Z,100672.02
2022-12-31T13:01:33.294Z,100666.87
2022-12-31T13:02:52.180Z,100658.03
2022-12-31T13:04:33.566Z,100658.16
2022-12-31T13:05:27.931Z,100652.08
2022-12-31T13:06:52.747Z,100650.27
2022-12-31T13:08:32.778Z,100650.27
2022-12-31T13:09:48.458Z,100649.42
2022-12-31T13:11:13.753Z,100661.34
2022-12-31T13:13:13.852Z,100670.17
2022-12-31T13:13:50.074Z,100671.33
2022-12-31T13:14:57.193Z,100670.39
2022-12-31T13:16:22.128Z,100675.92
2022-12-31T13:18:06.302Z,100674.20
2022-12-31T13:19:31.816Z,100676.31
2022-12-31T13:21:02.489Z,100670.05
2022-12-31T13:22:18.542Z,100675.59
2022-12-31T13:23:25.768Z,100671.33
2022-12-31T13:24:37.338Z,100670.36
2022-12-31T13:25:59.801Z,100673.02
2022-12-31T13:27:24.931Z,100673.02
2022-12-31T13:28:33.418Z,100683.78
2022-12-31T13:29:43.004Z,100690.05
2022-12-31T13:30:50.099Z,100693.67
2022-12-31T13:31:57.469Z,100691.95
2022-12-31T13:33:22.689Z,100693.88
2022-12-31T13:34:35.868Z,100688.56
2022-12-31T13:35:58.405Z,100688.56
2022-12-31T13:37:05.483Z,100694.81
2022-12-31T13:38:17.127Z,100687.05
2022-12-31T13:39:26.755Z,100688.09
2022-12-31T13:40:54.412Z,100688.09
2022-12-31T13:42:09.718Z,100685.56
2022-12-31T13:43:32.985Z,100676.81
2022-12-31T13:44:41.688Z,100675.30
2022-12-31T13:45:48.091Z,100675.30
2022-12-31T13:46:55.394Z,100676.48
2022-12-31T13:48:05.482Z,100672.20
2022-12-31T13:49:18.095Z,100669.55
2022-12-31T13:50:34.079Z,100667.94
2022-12-31T13:51:46.986Z,100667.94
2022-12-31T13:53:03.200Z,100668.23
2022-12-31T13:54:26.648Z,100673.67
2022-12-31T13:55:39.631Z,100672.91
2022-12-31T13:56:48.255Z,100673.85
2022-12-31T13:58:04.069Z,100673.85
2022-12-31T13:59:28.713Z,100676.72
2022-12-31T14:00:35.724Z,100680.34
2022-12-31T14:01:54.272Z,100680.34
2022-12-31T14:03:28.496Z,100675.02
2022-12-31T14:04:51.828Z,100672.45
2022-12-31T14:06:18.439Z,100675.23
2022-12-31T14:07:40.505Z,100675.23
2022-12-31T14:08:45.565Z,100669.27
2022-12-31T14:09:51.240Z,100672.02
2022-12-31T14:11:01.161Z,100672.22
2022-12-31T14:12:10.876Z,100667.83
2022-12-31T14:13:37.252Z,100667.83
2022-12-31T14:14:59.306Z,100665.17
2022-12-31T14:16:15.032Z,100658.08
2022-12-31T14:19:16.815Z,100652.64
2022-12-31T14:20:43.639Z,100647.32
2022-12-31T14:21:56.659Z,100441.23
2022-12-31T14:23:21.747Z,100653.40
2022-12-31T14:24:33.085Z,100658.80
2022-12-31T14:25:46.207Z,100658.16
2022-12-31T14:26:59.050Z,100656.47
2022-12-31T14:28:07.123Z,100653.05
2022-12-31T14:29:17.192Z,100656.67
2022-12-31T14:30:28.432Z,100661.98
2022-12-31T14:31:50.240Z,100661.11
2022-12-31T14:33:13.763Z,100660.38
2022-12-31T14:34:30.067Z,100655.35
2022-12-31T14:36:01.817Z,100655.35
2022-12-31T14:37:17.512Z,100655.76
2022-12-31T14:38:54.722Z,100655.08
2022-12-31T14:40:26.934Z,100655.08
2022-12-31T14:41:51.810Z,100649.33
2022-12-31T14:43:27.115Z,100654.84
2022-12-31T14:44:39.481Z,100648.84
2022-12-31T14:46:12.240Z,100643.84
2022-12-31T14:47:29.206Z,100649.36
2022-12-31T14:48:52.694Z,100650.30
2022-12-31T14:50:04.066Z,100644.13
2022-12-31T14:51:09.536Z,100650.41
2022-12-31T14:52:26.705Z,100656.45
2022-12-31T14:53:36.786Z,100653.15
2022-12-31T14:54:41.363Z,100646.87
2022-12-31T14:55:47.144Z,100651.53
2022-12-31T14:56:53.578Z,100648.97
2022-12-31T14:58:27.244Z,100645.58
2022-12-31T14:59:23.790Z,100640.06
2022-12-31T15:00:40.334Z,100638.34
2022-12-31T15:01:48.819Z,100650.89
2022-12-31T15:03:01.821Z,100645.58
2022-12-31T15:04:10.615Z,100648.12
2022-12-31T15:05:17.708Z,100641.00
2022-12-31T15:06:39.654Z,100652.50
2022-12-31T15:07:58.742Z,100654.11
2022-12-31T15:09:37.653Z,100647.07
2022-12-31T15:10:44.785Z,100650.49
2022-12-31T15:12:09.703Z,100646.22
2022-12-31T15:13:39.549Z,100647.84
2022-12-31T15:15:03.285Z,100645.27
2022-12-31T15:16:43.671Z,100645.18
2022-12-31T15:18:15.100Z,100639.87
2022-12-31T15:19:30.848Z,100637.13
2022-12-31T15:20:40.818Z,100634.35
2022-12-31T15:21:53.851Z,100633.50
2022-12-31T15:22:58.060Z,100627.34
2022-12-31T15:24:02.739Z,100623.72
2022-12-31T15:25:35.376Z,100618.41
2022-12-31T15:26:38.214Z,100620.14
2022-12-31T15:27:51.888Z,100621.06
2022-12-31T15:29:02.524Z,100617.56
2022-12-31T15:30:07.903Z,100625.45
2022-12-31T15:31:18.655Z,100623.72
2022-12-31T15:32:27.092Z,100623.72
2022-12-31T15:33:41.426Z,100625.53
2022-12-31T15:34:47.970Z,100623.64
2022-12-31T15:35:54.763Z,100626.30
2022-12-31T15:37:01.565Z,100627.91
2022-12-31T15:38:17.415Z,100627.91
2022-12-31T15:39:34.912Z,100624.93
2022-12-31T15:40:47.800Z,100622.27
2022-12-31T15:42:35.675Z,100620.37
2022-12-31T15:43:26.019Z,100617.63
2022-12-31T15:44:51.204Z,100623.87
2022-12-31T15:45:58.105Z,100620.17
2022-12-31T15:47:11.188Z,100620.17
2022-12-31T15:48:20.890Z,100625.48
2022-12-31T15:49:26.351Z,100628.06
2022-12-31T15:50:36.569Z,100633.26
2022-12-31T15:52:02.832Z,100626.89
2022-12-31T15:53:07.777Z,100624.23
2022-12-31T15:54:23.288Z,100615.33
2022-12-31T15:55:42.276Z,100618.08
2022-12-31T15:56:46.577Z,100613.40
2022-12-31T15:57:52.932Z,100622.13
2022-12-31T15:58:59.530Z,100615.21
2022-12-31T16:00:06.633Z,100621.29
2022-12-31T16:01:14.098Z,100618.72
2022-12-31T16:02:23.599Z,100618.83
2022-12-31T16:03:29.717Z,100615.33
2022-12-31T16:04:35.458Z,100607.23
2022-12-31T16:05:39.741Z,100612.76
2022-12-31T16:06:50.619Z,100617.98
2022-12-31T16:07:57.375Z,100620.53
2022-12-31T16:09:01.619Z,100624.03
2022-12-31T16:10:07.041Z,100620.44
2022-12-31T16:11:17.903Z,100618.55
2022-12-31T16:12:33.232Z,100619.48
2022-12-31T16:13:39.571Z,100612.17
2022-12-31T16:14:46.696Z,100611.97
2022-12-31T16:15:53.543Z,100610.92
2022-12-31T16:17:00.412Z,100604.64
2022-12-31T16:18:09.159Z,100613.25
2022-12-31T16:19:27.258Z,100616.79
2022-12-31T16:20:33.030Z,100602.23
2022-12-31T16:21:41.558Z,100606.50
2022-12-31T16:22:46.002Z,100609.04
2022-12-31T16:23:55.407Z,100602.67
2022-12-31T16:26:08.327Z,100609.50
2022-12-31T16:27:18.591Z,100609.50
2022-12-31T16:28:28.454Z,100605.88
2022-12-31T16:29:35.981Z,100604.91
2022-12-31T16:30:56.937Z,100618.20
2022-12-31T16:32:02.950Z,100617.36
2022-12-31T16:33:11.381Z,100615.55
2022-12-31T16:34:18.635Z,100612.89
2022-12-31T16:35:46.328Z,100607.57
2022-12-31T16:37:04.593Z,100609.30
2022-12-31T16:38:15.644Z,100609.30
2022-12-31T16:39:58.487Z,100605.88
2022-12-31T16:41:05.204Z,100598.86
2022-12-31T16:42:21.291Z,100593.55
2022-12-31T16:43:39.568Z,100593.55
2022-12-31T16:44:43.748Z,100595.33
2022-12-31T16:45:49.122Z,100595.33
2022-12-31T16:46:56.056Z,100589.92
2022-12-31T16:48:03.139Z,100581.85
2022-12-31T16:49:16.440Z,100588.86
2022-12-31T16:50:24.393Z,100589.71
2022-12-31T16:51:33.632Z,100586.96
2022-12-31T16:52:43.617Z,100578.02
2022-12-31T16:53:49.070Z,100582.70
2022-12-31T16:54:54.677Z,100575.66
2022-12-31T16:56:04.833Z,100580.97
2022-12-31T16:57:11.911Z,100580.97
2022-12-31T16:58:29.107Z,100572.27
2022-12-31T16:59:36.479Z,100578.52
2022-12-31T17:00:41.378Z,100575.86
2022-12-31T17:01:46.808Z,100588.23
2022-12-31T17:03:05.825Z,100596.93
2022-12-31T17:04:15.005Z,100592.49
2022-12-31T17:05:26.054Z,100592.49
2022-12-31T17:06:32.358Z,100595.33
2022-12-31T17:07:43.643Z,100589.16
2022-12-31T17:08:56.713Z,100595.45
2022-12-31T17:10:21.427Z,100597.14
2022-12-31T17:11:28.472Z,100590.98
2022-12-31T17:13:16.954Z,100591.82
2022-12-31T17:13:46.467Z,100590.13
2022-12-31T17:14:57.245Z,100588.23
2022-12-31T17:16:05.896Z,100586.41
2022-12-31T17:17:11.611Z,100585.56
2022-12-31T17:18:22.543Z,100582.03
2022-12-31T17:19:44.421Z,100575.02
2022-12-31T17:20:51.304Z,100576.63
2022-12-31T17:21:55.648Z,100580.13
2022-12-31T17:23:02.744Z,100573.75
2022-12-31T17:24:09.015Z,100573.75
2022-12-31T17:25:35.852Z,100565.77
2022-12-31T17:26:43.381Z,100574.51
2022-12-31T17:28:01.597Z,100566.74
2022-12-31T17:29:05.948Z,100566.74
2022-12-31T17:30:29.525Z,100573.96
2022-12-31T17:31:41.168Z,100566.19
2022-12-31T17:32:50.608Z,100562.78
2022-12-31T17:33:57.401Z,100562.78
2022-12-31T17:35:07.390Z,100570.97
2022-12-31T17:36:23.501Z,100577.98
2022-12-31T17:37:30.421Z,100577.98
2022-12-31T17:38:38.443Z,100577.98
2022-12-31T17:39:48.280Z,100573.08
2022-12-31T17:40:56.632Z,100564.34
2022-12-31T17:42:02.331Z,100571.38
2022-12-31T17:43:07.983Z,100574.77
2022-12-31T17:44:18.051Z,100567.67
2022-12-31T17:45:25.556Z,100579.03
2022-12-31T17:46:31.730Z,100565.02
2022-12-31T17:47:41.647Z,100567.55
2022-12-31T17:48:47.932Z,100562.23
2022-12-31T17:49:53.819Z,100548.18
2022-12-31T17:51:00.480Z,100548.18
2022-12-31T17:52:23.567Z,100549.23
2022-12-31T17:53:28.238Z,100556.28
2022-12-31T17:54:32.565Z,100553.70
2022-12-31T17:55:36.979Z,100553.70
2022-12-31T17:56:45.290Z,100551.38
2022-12-31T17:57:56.526Z,100554.77
2022-12-31T17:59:06.529Z,100552.02
2022-12-31T18:00:21.902Z,100554.67
2022-12-31T18:02:37.489Z,100560.08
2022-12-31T18:03:03.057Z,100554.12
2022-12-31T18:04:16.817Z,100549.02
2022-12-31T18:05:24.014Z,100542.09
2022-12-31T18:06:28.251Z,100542.09
2022-12-31T18:07:34.082Z,100538.59
2022-12-31T18:08:38.608Z,100557.95
2022-12-31T18:09:42.699Z,100559.65
2022-12-31T18:10:46.879Z,100560.62
2022-12-31T18:12:01.646Z,100560.50
2022-12-31T18:13:14.456Z,100561.55
2022-12-31T18:14:18.556Z,100560.70
2022-12-31T18:15:25.094Z,100562.52
2022-12-31T18:16:29.806Z,100557.20
2022-12-31T18:17:35.647Z,100557.20
2022-12-31T18:18:39.691Z,100558.13
2022-12-31T18:20:04.064Z,100563.45
2022-12-31T18:20:54.415Z,100563.45
2022-12-31T18:22:03.010Z,100567.08
2022-12-31T18:23:08.555Z,100568.89
2022-12-31T18:24:17.270Z,100568.97
2022-12-31T18:25:24.448Z,100574.29
2022-12-31T18:26:31.403Z,100571.75
2022-12-31T18:27:35.460Z,100568.97
2022-12-31T18:28:39.657Z,100571.84
2022-12-31T18:29:46.360Z,100567.28
2022-12-31T18:30:51.147Z,100567.28
2022-12-31T18:31:55.714Z,100571.84
2022-12-31T18:33:01.237Z,100571.84
2022-12-31T18:34:13.202Z,100574.50
2022-12-31T18:36:29.732Z,100578.97
2022-12-31T18:37:35.811Z,100578.97
2022-12-31T18:38:40.968Z,100579.81
2022-12-31T18:39:45.604Z,100590.44
2022-12-31T18:40:58.536Z,100592.14
2022-12-31T18:43:04.900Z,100603.53
2022-12-31T18:43:29.572Z,100603.53
2022-12-31T18:44:33.767Z,100597.08
2022-12-31T18:45:41.402Z,100597.08
2022-12-31T18:46:48.221Z,100598.77
2022-12-31T18:47:53.440Z,100598.77
2022-12-31T18:49:56.367Z,100594.97
2022-12-31T18:50:19.282Z,100581.56
2022-12-31T18:51:31.515Z,100585.06
2022-12-31T18:52:30.549Z,100580.50
2022-12-31T18:53:37.460Z,100574.34
2022-12-31T18:54:41.459Z,100581.14
2022-12-31T18:55:48.999Z,100585.41
2022-12-31T18:56:57.049Z,100588.82
2022-12-31T18:57:58.990Z,100589.67
2022-12-31T18:59:03.488Z,100589.67
2022-12-31T19:00:14.673Z,100590.34
2022-12-31T19:01:37.299Z,100592.03
2022-12-31T19:02:41.547Z,100586.50
2022-12-31T19:03:45.595Z,100593.55
2022-12-31T19:04:49.616Z,100588.95
2022-12-31T19:05:55.121Z,100579.92
2022-12-31T19:06:59.333Z,100579.70
2022-12-31T19:08:03.497Z,100571.64
2022-12-31T19:09:23.691Z,100563.66
2022-12-31T19:10:16.878Z,100561.97
2022-12-31T19:11:21.907Z,100555.59
2022-12-31T19:12:26.087Z,100560.16
2022-12-31T19:13:30.185Z,100552.05
2022-12-31T19:14:36.988Z,100546.86
2022-12-31T19:15:49.245Z,100548.67
2022-12-31T19:16:54.389Z,100544.19
2022-12-31T19:17:58.784Z,100540.78
2022-12-31T19:19:08.447Z,100531.20
2022-12-31T19:20:08.916Z,100527.06
2022-12-31T19:21:19.219Z,100526.94
2022-12-31T19:22:23.266Z,100526.94
2022-12-31T19:23:27.404Z,100532.25
2022-12-31T19:24:34.538Z,100535.22
2022-12-31T19:25:41.630Z,100538.63
2022-12-31T19:26:45.923Z,100527.24
2022-12-31T19:27:50.894Z,100522.34
2022-12-31T19:28:55.055Z,100526.73
2022-12-31T19:30:00.720Z,100526.73
2022-12-31T19:31:04.871Z,100532.98
2022-12-31T19:32:11.696Z,100539.91
2022-12-31T19:33:16.828Z,100525.97
2022-12-31T19:34:21.097Z,100531.30
2022-12-31T19:35:25.581Z,100530.53
2022-12-31T19:36:29.654Z,100527.12
2022-12-31T19:37:37.992Z,100528.84
2022-12-31T19:38:44.204Z,100526.39
2022-12-31T19:39:48.239Z,100529.90
2022-12-31T19:40:56.528Z,100525.52
2022-12-31T19:41:59.936Z,100524.88
2022-12-31T19:43:04.340Z,100524.88
2022-12-31T19:44:11.471Z,100523.91
2022-12-31T19:45:18.302Z,100531.38
2022-12-31T19:46:22.947Z,100526.06
2022-12-31T19:47:29.876Z,100529.66
2022-12-31T19:48:35.433Z,100534.03
2022-12-31T19:49:39.662Z,100532.43
2022-12-31T19:50:46.853Z,100525.18
2022-12-31T19:51:50.997Z,100521.59
2022-12-31T19:52:58.083Z,100537.42
2022-12-31T19:54:02.186Z,100538.38
2022-12-31T19:55:06.853Z,100547.33
2022-12-31T19:56:16.974Z,100549.02
2022-12-31T19:57:21.040Z,100554.33
2022-12-31T19:58:27.225Z,100545.18
2022-12-31T19:59:31.207Z,100543.28
2022-12-31T20:00:35.411Z,100542.23
2022-12-31T20:01:41.106Z,100553.70
2022-12-31T20:02:51.143Z,100546.58
2022-12-31T20:03:55.518Z,100546.58
2022-12-31T20:05:01.180Z,100551.05
2022-12-31T20:06:08.214Z,100553.70
2022-12-31T20:07:12.327Z,100548.39
2022-12-31T20:08:16.447Z,100547.55
2022-12-31T20:09:20.564Z,100545.94
2022-12-31T20:10:24.762Z,100548.59
2022-12-31T20:11:28.939Z,100546.06
2022-12-31T20:12:34.084Z,100542.52
2022-12-31T20:13:40.696Z,100549.66
2022-12-31T20:14:44.806Z,100547.12
2022-12-31T20:15:48.848Z,100541.67
2022-12-31T20:16:53.023Z,100530.95
2022-12-31T20:17:59.643Z,100527.45
2022-12-31T20:19:05.360Z,100520.41
2022-12-31T20:20:09.983Z,100518.59
2022-12-31T20:21:16.902Z,100523.91
2022-12-31T20:22:21.161Z,100529.23
2022-12-31T20:23:25.132Z,100520.33
2022-12-31T20:24:29.165Z,100526.57
2022-12-31T20:26:08.871Z,100524.80
2022-12-31T20:27:18.225Z,100527.33
2022-12-31T20:28:18.739Z,100536.27
2022-12-31T20:29:22.816Z,100523.91
2022-12-31T20:30:26.923Z,100543.49
2022-12-31T20:31:36.069Z,100536.27
2022-12-31T20:32:42.573Z,100538.81
2022-12-31T20:33:48.174Z,100543.28
2022-12-31T20:34:55.544Z,100547.66
2022-12-31T20:36:08.495Z,100538.60
2022-12-31T20:37:12.522Z,100539.27
2022-12-31T20:38:16.791Z,100540.75
2022-12-31T20:39:20.763Z,100535.43
2022-12-31T20:40:35.117Z,100535.43
2022-12-31T20:41:40.769Z,99711.66
2022-12-31T20:42:56.210Z,100548.34
2022-12-31T20:43:52.551Z,100544.62
2022-12-31T20:44:59.449Z,100546.31
2022-12-31T20:46:12.658Z,100545.47
2022-12-31T20:47:23.143Z,100548.84
2022-12-31T20:48:26.993Z,100557.58
2022-12-31T20:50:09.174Z,100550.57
2022-12-31T20:50:44.595Z,100552.05
2022-12-31T20:51:52.348Z,100556.44
2022-12-31T20:52:57.386Z,100559.84
2022-12-31T20:54:07.136Z,100555.25
2022-12-31T20:55:14.005Z,100560.58
2022-12-31T20:56:18.622Z,100557.91
2022-12-31T20:57:22.665Z,100551.66
2022-12-31T20:58:28.260Z,100555.25
2022-12-31T20:59:35.361Z,100550.91
2022-12-31T21:00:39.782Z,100544.61
2022-12-31T21:02:20.171Z,100542.08
2022-12-31T21:03:00.615Z,100541.02
2022-12-31T21:04:05.805Z,100532.06
2022-12-31T21:05:09.943Z,100528.44
2022-12-31T21:06:16.548Z,100528.25
2022-12-31T21:07:25.145Z,100525.47
2022-12-31T21:08:34.603Z,100525.25
2022-12-31T21:09:40.628Z,100526.09
2022-12-31T21:10:43.675Z,100523.44
2022-12-31T21:11:50.267Z,100523.34
2022-12-31T21:14:15.481Z,100525.16
2022-12-31T21:15:31.071Z,100521.75
2022-12-31T21:16:39.089Z,100519.09
2022-12-31T21:17:42.809Z,100512.08
2022-12-31T21:18:51.260Z,100517.19
2022-12-31T21:19:55.343Z,100516.97
2022-12-31T21:21:02.440Z,100516.21
2022-12-31T21:22:06.550Z,100512.61
2022-12-31T21:23:12.137Z,100521.53
2022-12-31T21:24:21.770Z,100511.86
2022-12-31T21:25:23.669Z,100500.38
2022-12-31T21:26:28.573Z,100510.14
2022-12-31T21:27:32.719Z,100508.14
2022-12-31T21:28:37.044Z,100504.72
2022-12-31T21:30:02.061Z,100505.03
2022-12-31T21:30:48.576Z,100508.35
2022-12-31T21:31:56.568Z,100505.78
2022-12-31T21:33:00.823Z,100493.77
2022-12-31T21:34:04.956Z,100491.20
2022-12-31T21:35:41.095Z,100494.83
2022-12-31T21:36:16.243Z,100490.78
2022-12-31T21:37:20.283Z,100490.47
2022-12-31T21:38:24.367Z,100491.41
2022-12-31T21:39:40.594Z,100496.73
2022-12-31T21:41:11.228Z,100485.38
2022-12-31T21:43:39.555Z,100483.34
2022-12-31T21:44:47.318Z,100481.52
2022-12-31T21:46:02.961Z,100481.52
2022-12-31T21:47:34.336Z,100474.52
2022-12-31T21:48:16.064Z,100482.06
2022-12-31T21:49:20.202Z,100489.07
2022-12-31T21:50:24.280Z,100483.75
2022-12-31T21:51:30.391Z,100484.50
2022-12-31T21:52:36.205Z,100490.58
2022-12-31T21:53:40.428Z,100489.52
2022-12-31T21:54:44.508Z,100495.46
2022-12-31T21:55:48.922Z,100489.17
2022-12-31T21:57:05.616Z,100489.92
2022-12-31T21:58:25.351Z,100489.92
2022-12-31T21:59:06.311Z,100493.55
2022-12-31T22:00:41.024Z,100495.24
2022-12-31T22:01:23.305Z,100487.17
2022-12-31T22:02:59.725Z,100492.58
2022-12-31T22:04:01.725Z,100487.17
2022-12-31T22:05:14.985Z,100479.94
2022-12-31T22:06:18.035Z,100470.98
2022-12-31T22:07:26.751Z,100482.59
2022-12-31T22:08:34.629Z,100477.14
2022-12-31T22:09:39.906Z,100469.91
2022-12-31T22:10:51.951Z,100475.02